createdAt,value
2022-10-05T03:01:37.429Z,3.90
2022-10-05T03:04:06.829Z,4.70
2022-10-05T03:06:42.310Z,5.35
2022-10-05T03:09:09.846Z,4.25
2022-10-05T03:11:46.812Z,3.97
2022-10-05T03:14:22.966Z,4.78
2022-10-05T03:17:10.580Z,4.22
2022-10-05T03:20:06.064Z,4.90
2022-10-05T03:22:44.259Z,4.32
2022-10-05T03:25:36.125Z,4.60
2022-10-05T03:30:50.129Z,4.20
2022-10-05T03:33:43.689Z,5.50
2022-10-05T03:36:32.658Z,4.97
2022-10-05T03:39:13.946Z,5.40
2022-10-05T03:41:50.383Z,4.88
2022-10-05T03:44:32.916Z,5.03
2022-10-05T03:47:07.742Z,4.68
2022-10-05T03:50:04.276Z,4.15
2022-10-05T03:52:42.986Z,4.40
2022-10-05T03:55:36.349Z,4.53
2022-10-05T03:58:09.923Z,4.53
2022-10-05T04:00:37.652Z,4.57
2022-10-05T04:03:16.909Z,5.25
2022-10-05T04:05:57.077Z,4.38
2022-10-05T04:08:41.250Z,4.80
2022-10-05T04:11:19.771Z,4.00
2022-10-05T04:13:54.328Z,4.82
2022-10-05T04:16:28.209Z,4.60
2022-10-05T04:18:57.830Z,4.30
2022-10-05T04:21:30.450Z,4.47
2022-10-05T04:24:05.413Z,4.07
2022-10-05T04:26:37.861Z,4.45
2022-10-05T04:29:36.278Z,4.43
2022-10-05T04:32:19.379Z,4.38
2022-10-05T04:34:45.748Z,4.78
2022-10-05T04:37:29.473Z,4.72
2022-10-05T04:40:34.571Z,5.10
2022-10-05T04:43:13.165Z,4.47
2022-10-05T04:46:11.672Z,4.50
2022-10-05T04:49:03.029Z,4.85
2022-10-05T04:52:04.167Z,5.18
2022-10-05T04:54:39.697Z,5.17
2022-10-05T04:57:16.469Z,4.88
2022-10-05T05:00:23.326Z,4.78
2022-10-05T05:03:14.838Z,5.00
2022-10-05T05:06:18.034Z,5.07
2022-10-05T05:08:56.931Z,5.57
2022-10-05T05:11:49.286Z,5.28
2022-10-05T05:14:15.656Z,5.63
2022-10-05T05:16:44.925Z,5.70
2022-10-05T05:19:37.460Z,5.60
2022-10-05T05:22:31.748Z,4.95
2022-10-05T05:25:24.101Z,5.40
2022-10-05T05:28:28.278Z,5.25
2022-10-05T05:31:16.896Z,4.85
2022-10-05T05:33:53.733Z,4.97
2022-10-05T05:36:37.264Z,4.75
2022-10-05T05:39:18.653Z,4.72
2022-10-05T05:42:07.010Z,6.45
2022-10-05T05:44:45.557Z,4.45
2022-10-05T05:47:23.294Z,4.95
2022-10-05T05:49:58.705Z,4.82
2022-10-05T05:52:41.477Z,4.93
2022-10-05T05:55:19.049Z,4.93
2022-10-05T05:57:58.992Z,4.63
2022-10-05T06:00:42.982Z,4.90
2022-10-05T06:03:20.976Z,4.68
2022-10-05T06:06:00.659Z,5.25
2022-10-05T06:08:33.444Z,4.72
2022-10-05T06:11:06.790Z,5.60
2022-10-05T06:13:35.700Z,5.00
2022-10-05T06:16:36.026Z,5.15
2022-10-05T06:19:11.911Z,4.90
2022-10-05T06:21:53.352Z,4.20
2022-10-05T06:25:04.589Z,4.32
2022-10-05T06:27:33.789Z,4.73
2022-10-05T06:30:06.642Z,4.40
2022-10-05T06:32:42.892Z,4.45
2022-10-05T06:35:50.270Z,3.78
2022-10-05T06:38:52.048Z,5.40
2022-10-05T06:41:39.070Z,4.72
2022-10-05T06:44:21.200Z,4.63
2022-10-05T06:47:11.555Z,4.28
2022-10-05T06:50:32.461Z,5.03
2022-10-05T06:53:25.918Z,4.32
2022-10-05T06:56:01.456Z,4.50
2022-10-05T06:58:54.679Z,4.15
2022-10-05T07:01:33.201Z,4.22
2022-10-05T07:04:10.561Z,4.78
2022-10-05T07:06:55.018Z,4.93
2022-10-05T07:09:33.481Z,4.10
2022-10-05T07:12:10.171Z,4.50
2022-10-05T07:14:56.257Z,3.92
2022-10-05T07:17:47.712Z,3.50
2022-10-05T07:20:31.929Z,5.00
2022-10-05T07:23:04.563Z,5.05
2022-10-05T07:25:50.017Z,3.63
2022-10-05T07:28:32.781Z,4.50
2022-10-05T07:31:37.687Z,4.15
2022-10-05T07:34:15.359Z,3.42
2022-10-05T07:37:08.443Z,3.42
2022-10-05T07:40:00.306Z,3.53
2022-10-05T07:42:27.345Z,3.60
2022-10-05T07:45:04.080Z,3.38
2022-10-05T07:47:48.037Z,2.75
2022-10-05T07:50:24.763Z,2.88
2022-10-05T07:53:02.585Z,3.35
2022-10-05T07:55:37.042Z,2.85
2022-10-05T07:58:18.692Z,2.67
2022-10-05T08:01:04.120Z,2.95
2022-10-05T08:04:01.010Z,2.95
2022-10-05T08:06:50.703Z,3.28
2022-10-05T08:09:41.305Z,3.53
2022-10-05T08:12:30.786Z,2.90
2022-10-05T08:15:15.872Z,3.13
2022-10-05T08:18:21.739Z,2.72
2022-10-05T08:20:57.762Z,2.80
2022-10-05T08:23:36.046Z,2.38
2022-10-05T08:26:22.633Z,2.80
2022-10-05T08:28:56.696Z,2.78
2022-10-05T08:31:27.417Z,2.28
2022-10-05T08:34:20.059Z,2.80
2022-10-05T08:36:54.208Z,2.78
2022-10-05T08:39:24.242Z,3.08
2022-10-05T08:42:07.326Z,3.38
2022-10-05T08:44:52.549Z,2.65
2022-10-05T08:47:45.950Z,2.67
2022-10-05T08:50:31.242Z,2.35
2022-10-05T08:53:06.657Z,2.85
2022-10-05T08:56:28.581Z,2.78
2022-10-05T09:01:35.417Z,2.92
2022-10-05T09:04:16.242Z,2.70
2022-10-05T09:06:51.331Z,2.38
2022-10-05T09:09:58.293Z,2.88
2022-10-05T09:12:52.535Z,3.10
2022-10-05T09:15:41.469Z,1.97
2022-10-05T09:18:22.705Z,2.95
2022-10-05T09:20:54.158Z,3.35
2022-10-05T09:23:43.508Z,3.13
2022-10-05T09:26:28.438Z,3.10
2022-10-05T09:29:32.171Z,3.10
2022-10-05T09:32:14.295Z,3.15
2022-10-05T09:35:16.790Z,2.88
2022-10-05T09:38:04.953Z,3.58
2022-10-05T09:41:03.904Z,3.55
2022-10-05T09:43:50.581Z,3.13
2022-10-05T09:46:44.691Z,3.20
2022-10-05T09:49:42.080Z,4.35
2022-10-05T09:52:18.813Z,3.20
2022-10-05T09:55:27.035Z,3.10
2022-10-05T09:58:06.683Z,3.20
2022-10-05T10:01:36.393Z,3.10
2022-10-05T10:04:15.320Z,3.50
2022-10-05T10:06:57.857Z,3.13
2022-10-05T10:09:33.069Z,3.17
2022-10-05T10:12:22.908Z,2.90
2022-10-05T10:15:11.128Z,2.80
2022-10-05T10:18:20.894Z,3.05
2022-10-05T10:21:33.616Z,3.83
2022-10-05T10:24:15.186Z,3.72
2022-10-05T10:26:54.754Z,3.88
2022-10-05T10:29:30.695Z,4.32
2022-10-05T10:32:44.694Z,3.10
2022-10-05T10:38:34.708Z,3.90
2022-10-05T10:41:33.218Z,3.75
2022-10-05T10:44:27.213Z,3.30
2022-10-05T10:47:02.171Z,3.35
2022-10-05T10:49:47.535Z,3.45
2022-10-05T10:52:38.412Z,3.35
2022-10-05T10:55:34.168Z,3.00
2022-10-05T10:58:16.047Z,3.70
2022-10-05T11:00:43.221Z,3.35
2022-10-05T11:03:43.747Z,3.10
2022-10-05T11:06:17.323Z,2.92
2022-10-05T11:09:21.331Z,3.05
2022-10-05T11:12:12.452Z,2.85
2022-10-05T11:14:57.217Z,3.30
2022-10-05T11:17:48.425Z,2.85
2022-10-05T11:20:37.651Z,3.50
2022-10-05T11:23:16.189Z,3.00
2022-10-05T11:25:47.344Z,2.95
2022-10-05T11:28:38.116Z,2.85
2022-10-05T11:31:52.232Z,3.17
2022-10-05T11:34:34.113Z,3.38
2022-10-05T11:37:18.762Z,3.38
2022-10-05T11:40:09.954Z,3.00
2022-10-05T11:42:45.262Z,3.10
2022-10-05T11:45:25.626Z,3.05
2022-10-05T11:48:07.226Z,2.83
2022-10-05T11:50:38.982Z,3.05
2022-10-05T11:53:27.908Z,3.20
2022-10-05T11:56:06.223Z,3.28
2022-10-05T11:58:37.974Z,3.22
2022-10-05T12:01:19.517Z,2.97
2022-10-05T12:03:57.866Z,3.15
2022-10-05T12:06:56.085Z,3.05
2022-10-05T12:09:25.543Z,3.15
2022-10-05T12:12:10.778Z,3.22
2022-10-05T12:14:58.964Z,2.80
2022-10-05T12:17:40.855Z,2.75
2022-10-05T12:20:20.298Z,2.08
2022-10-05T12:23:18.536Z,2.33
2022-10-05T12:25:51.370Z,2.10
2022-10-05T12:28:23.559Z,2.35
2022-10-05T12:31:08.586Z,2.22
2022-10-05T12:33:41.264Z,2.08
2022-10-05T12:36:36.041Z,1.95
2022-10-05T12:39:19.405Z,1.80
2022-10-05T12:41:48.823Z,2.08
2022-10-05T12:44:52.483Z,2.72
2022-10-05T12:47:27.528Z,2.10
2022-10-05T12:50:20.949Z,2.00
2022-10-05T12:53:02.881Z,1.92
2022-10-05T12:55:34.737Z,2.10
2022-10-05T12:58:12.159Z,2.20
2022-10-05T13:00:47.797Z,2.05
2022-10-05T13:03:26.711Z,2.00
2022-10-05T13:06:13.881Z,1.98
2022-10-05T13:08:56.832Z,2.13
2022-10-05T13:11:52.966Z,2.17
2022-10-05T13:14:45.480Z,2.35
2022-10-05T13:17:27.506Z,2.55
2022-10-05T13:20:12.191Z,2.08
2022-10-05T13:22:52.695Z,1.77
2022-10-05T13:25:34.921Z,1.70
2022-10-05T13:28:16.219Z,2.30
2022-10-05T13:31:01.133Z,1.98
2022-10-05T13:33:38.699Z,2.13
2022-10-05T13:36:13.158Z,2.30
2022-10-05T13:39:13.220Z,2.40
2022-10-05T13:41:51.134Z,2.13
2022-10-05T13:44:38.826Z,2.20
2022-10-05T13:47:13.349Z,1.92
2022-10-05T13:49:57.849Z,1.95
2022-10-05T13:52:59.957Z,2.50
2022-10-05T13:55:49.716Z,2.40
2022-10-05T13:58:44.579Z,2.28
2022-10-05T14:01:19.948Z,2.00
2022-10-05T14:04:16.968Z,2.15
2022-10-05T14:06:44.773Z,2.10
2022-10-05T14:09:26.618Z,2.30
2022-10-05T14:12:12.902Z,2.50
2022-10-05T14:14:54.287Z,2.47
2022-10-05T14:17:29.153Z,3.10
2022-10-05T14:20:01.070Z,3.05
2022-10-05T14:22:27.952Z,2.40
2022-10-05T14:25:19.951Z,2.90
2022-10-05T14:28:02.002Z,2.55
2022-10-05T14:30:32.520Z,2.35
2022-10-05T14:33:04.951Z,2.75
2022-10-05T14:35:45.310Z,2.33
2022-10-05T14:38:29.412Z,2.85
2022-10-05T14:41:15.829Z,2.67
2022-10-05T14:44:10.743Z,2.60
2022-10-05T14:46:38.513Z,2.40
2022-10-05T14:49:17.115Z,2.10
2022-10-05T14:51:43.593Z,2.55
2022-10-05T14:54:19.338Z,2.63
2022-10-05T14:56:54.274Z,2.20
2022-10-05T14:59:29.443Z,2.35
2022-10-05T15:02:17.760Z,2.10
2022-10-05T15:04:56.770Z,1.85
2022-10-05T15:07:30.736Z,2.03
2022-10-05T15:10:02.910Z,2.38
2022-10-05T15:12:38.398Z,2.28
2022-10-05T15:15:25.472Z,2.00
2022-10-05T15:17:58.078Z,2.00
2022-10-05T15:20:39.121Z,2.05
2022-10-05T15:23:35.126Z,2.45
2022-10-05T15:26:30.442Z,2.42
2022-10-05T15:29:27.207Z,2.70
2022-10-05T15:32:14.634Z,2.42
2022-10-05T15:35:23.113Z,3.20
2022-10-05T15:37:57.597Z,2.70
2022-10-05T15:40:34.665Z,2.50
2022-10-05T15:43:09.512Z,3.38
2022-10-05T15:45:41.176Z,2.80
2022-10-05T15:51:18.799Z,2.85
2022-10-05T15:54:17.269Z,3.67
2022-10-05T15:56:52.826Z,2.80
2022-10-05T15:59:31.042Z,3.05
2022-10-05T16:02:07.074Z,3.30
2022-10-05T16:04:41.588Z,3.00
2022-10-05T16:07:36.951Z,4.13
2022-10-05T16:10:24.085Z,3.10
2022-10-05T16:13:19.322Z,3.22
2022-10-05T16:15:56.097Z,2.80
2022-10-05T16:18:34.320Z,3.45
2022-10-05T16:21:15.893Z,2.63
2022-10-05T16:24:18.556Z,2.72
2022-10-05T16:26:50.931Z,2.70
2022-10-05T16:29:28.138Z,3.05
2022-10-05T16:32:02.728Z,2.83
2022-10-05T16:35:00.724Z,3.03
2022-10-05T16:37:29.994Z,3.22
2022-10-05T16:40:00.160Z,3.03
2022-10-05T16:42:51.452Z,2.72
2022-10-05T16:45:27.660Z,3.30
2022-10-05T16:48:05.172Z,3.20
2022-10-05T16:50:56.020Z,2.92
2022-10-05T16:53:59.128Z,3.10
2022-10-05T16:56:34.192Z,3.25
2022-10-05T16:59:36.420Z,2.75
2022-10-05T17:02:15.274Z,3.42
2022-10-05T17:05:12.831Z,3.28
2022-10-05T17:07:58.806Z,3.08
2022-10-05T17:10:27.905Z,3.42
2022-10-05T17:12:54.375Z,3.42
2022-10-05T17:15:39.531Z,3.85
2022-10-05T17:18:05.971Z,3.70
2022-10-05T17:20:44.288Z,3.33
2022-10-05T17:23:33.234Z,3.90
2022-10-05T17:26:27.605Z,3.95
2022-10-05T17:29:16.437Z,3.60
2022-10-05T17:32:01.346Z,3.70
2022-10-05T17:34:34.861Z,3.95
2022-10-05T17:37:24.327Z,3.88
2022-10-05T17:39:53.701Z,4.50
2022-10-05T17:42:26.173Z,4.30
2022-10-05T17:45:13.835Z,4.47
2022-10-05T17:48:01.930Z,5.00
2022-10-05T17:51:07.606Z,4.63
2022-10-05T17:53:52.532Z,5.00
2022-10-05T17:56:20.830Z,4.82
2022-10-05T17:58:47.368Z,4.60
2022-10-05T18:01:44.958Z,5.30
2022-10-05T18:04:11.335Z,5.03
2022-10-05T18:07:01.694Z,4.60
2022-10-05T18:09:32.934Z,4.32
2022-10-05T18:12:10.243Z,5.30
2022-10-05T18:15:07.143Z,5.53
2022-10-05T18:17:51.145Z,5.47
2022-10-05T18:20:30.113Z,5.13
2022-10-05T18:23:02.561Z,5.38
2022-10-05T18:25:38.169Z,5.18
2022-10-05T18:28:39.207Z,4.25
2022-10-05T18:31:26.104Z,5.10
2022-10-05T18:34:03.945Z,4.50
2022-10-05T18:37:07.732Z,4.72
2022-10-05T18:40:08.741Z,4.75
2022-10-05T18:43:42.980Z,4.47
2022-10-05T18:46:39.053Z,4.80
2022-10-05T18:49:34.697Z,5.07
2022-10-05T18:52:03.844Z,4.35
2022-10-05T18:54:36.173Z,4.28
2022-10-05T18:57:25.249Z,4.07
2022-10-05T19:00:17.501Z,4.13
2022-10-05T19:02:57.278Z,4.10
2022-10-05T19:05:47.085Z,4.45
2022-10-05T19:08:43.302Z,4.40
2022-10-05T19:11:12.447Z,4.20
2022-10-05T19:13:41.992Z,3.70
2022-10-05T19:16:36.453Z,3.60
2022-10-05T19:19:30.889Z,4.13
2022-10-05T19:21:59.679Z,3.80
2022-10-05T19:24:28.929Z,3.65
2022-10-05T19:27:33.634Z,3.53
2022-10-05T19:30:11.923Z,3.35
2022-10-05T19:33:05.814Z,3.67
2022-10-05T19:35:34.657Z,3.40
2022-10-05T19:38:58.156Z,3.33
2022-10-05T19:41:40.991Z,3.63
2022-10-05T19:44:35.452Z,3.17
2022-10-05T19:47:17.498Z,3.08
2022-10-05T19:49:59.205Z,3.60
2022-10-05T19:52:36.255Z,4.18
2022-10-05T19:55:20.491Z,3.30
2022-10-05T19:57:55.081Z,3.85
2022-10-05T20:00:33.310Z,3.22
